Hauptseite
METAR-TAF:

METAR-TAF

Flughäfen :

City-Airport Mannheim

Mannheim, Deutschland

Breite: 49-28-21N, Länge: 008-30-56E, Höhe: 100 m

Beobachtung

Neuester Wetterbericht von vor 3 Stunden und 50 Minuten, um 18:50 UTC
Wind 6 kt aus West
Temperatur 21°C
Luftfeuchtigkeit 64%
Luftdruck 1019 hPa
Sichtweite 10 km oder mehr
keine Wolken unter 1500 m und keine Kumulonimbus oder Gewitterwolken

METAR: EDFM 161850Z 26006KT CAVOK 21/14 Q1019

Zeit: 00:40 (22:40 UTC)

Prognose

Neuester Wetterbericht von vor 5 Stunden und 40 Minuten, um 17:00 UTC
Gültige Prognose vom 16 um 18 UTC bis 16 um 21 UTC
Wind 6 kt aus West/Südwest
Sichtweite 10 km oder mehr
Aufgelockert bewölkt in der Höhe von 4000 ft
Übergehend zu
vom 16 um 20 UTC bis 16 um 21 UTC
Wind 3 kt aus unterschiedlichen Richtungen

TAF: EDFM 161700Z 1618/1621 25006KT 9999 SCT040 BECMG 1620/1621 VRB03KT

Wetterbeobachtungen und Prognosen von mehr als 4000 Flughäfen (METAR und TAF Bericht).

Die verfügbaren Stationen werden durch gelbe und rote Markierungen auf der Karte dargestellt.

Führen Sie die Maus auf sie, um den Namen der Station zu sehen.

Darauf klicken, um die Beobachtung von Wetterbeobachtungen und Prognosen zu sehen.

Um die Karte zu ändern : klicken Sie auf den grünen Tasten mit einem schwarzen Kreuz Zum Vergrößern, auf den grünen Button mit einem Gedankenstrich zu verkleinern, oder auf die grünen Pfeile für benachbarte Karten.


METAR-TAF: